world map with SXF marked

SXF - Airport

This information may not be accurate or current and is not valid for navigation or flight planning. No warranty of fitness for any purpose is made or implied.

flag of Brandenburgflag of Germany

Donate via PayPal

Additional information is available on the NEW Great Circle Mapper

Location
City:  Berlin, Brandenburg, Germany
Near (Alt.):Schönefeld
Name:Berlin Schönefeld Airport (Berlin Brandenburg International)
ICAO / IATA:EDDB / SXF

Details
Type:Airport (Flugplatz, Airfield)
Use:Public/Civil
Latitude:52°22'42"N (52.378333)
Longitude:13°31'14"E (13.520556)
Elevation:157 ft (48 m)
Runways:1
Longest:11811 × 148 ft (3600 × 45 m)

Time
Timezone:UTC+1 (DST+4)
Local Time:

Weather
METAR:EDDB  210250Z 05002KT CAVOK 13/10 Q1013 NOSIG
TAF:EDDB  202300Z 2100/2124 VRB02KT CAVOK BECMG 2103/2106 06007KT= TAF EDDC 202300Z 2100/2124 12006KT CAVOK BECMG 2109/2111 06008KT

Related Locations
Nearby:
Farthest:CHT: 11684 mi / 18803 km
Waitangi [Tuuta], CIT, NZ

Find:

   beyond  
but within

Other Information
Maps:
Links:
Sources:

  


 


Great Circle Mapper   Great Circle Mapper
Great Circle Mapper FAQ   Great Circle Mapper FAQ
  Karl's Home Page
KLS²   KLS² Home
   GC on Facebook
Airlines of the World   Airlines of the World
Donate via PayPal


Copyright © 2004-2018, Karl L. Swartz. All rights reserved.
All trademarks mentioned herein belong to their respective owners.

Please see credits for attribution and copyright information.

Karl Swartz <karl@kls2.com>
  Powered by FreeBSD
Valid HTML 4.01!
Labeled with ICRA
hCard Microformat
Geo Microformat